Campbell AAF (Fort Campbell) Air Field
KHOP : now visible

Airfield :











YOU CAN JOIN US ON...

 
LOGIN :

Register | Disclaimer

   EN    FR    IT 

 









Legend :    VFR   Marginal VFR   IFR   Intensive IFR   Very Intensive IFR
Visi :
Ceiling :
>= 8 km
>= 3000ft
5 to 8 km
1000 to 3000 ft
1500m to 5 km
500 to 1000 ft
800 to 1500m
200 to 500 ft
< 800m
< 200 ft
Symbols :   Thunderstorms  Fog  Heavy snow  Heavy precipitations  Wind > 20 kt







- Airport Elevation : 573 ft


KHOP - Campbell AAF (Fort Campbell) Air Field

CURRENT METAR :
  • 191356Z AUTO 23009KT 10SM CLR 29/25 A3005 RMK AO2 SLP172 T02860252

EXPIRED METARs :
  • 191256Z AUTO 22007KT 10SM CLR 27/25 A3004 RMK AO2 SLP169 T02690247
  • 191156Z AUTO 20005KT 10SM CLR 25/24 A3003 RMK AO2 SLP166 T02460242 10246 20229 52015

TAF TAF KHOP
Valid from the 19 at 08:00 until the 20 at 14:00 UTC


190800Z 1908/2014 24006KT 9999 FEW050 SCT100 QNH2992INS
TEMPO 1912/1915 4800 BR
BECMG 1914/1915 24010G15KT 9999 SCT050 SCT150 QNH2995INS
BECMG 2000/2001 21006KT 9999 SCT060 QNH2994INS TX34/1921Z TN23/1908Z
KZME FIR / North America



MET'MAP, your aeronautical weather chart ! - Copyright ORBIFLY December 2007 - Disclaimer

ORBIFLY MET'MAP TEAM :

Programming & Development : Alexandra Zaïnal
Concept & Development : Baudouin d'Aumeries
Co-Development & Prog : Marc-Olivier Méhu
Technical & hardware support : Manuel Goepfert

Contact : metmap@orbifly.com




SOURCES & CREDITS :

   NOAA       Earth
Advisory